Time;durP1;ratioP1;P1;durP2;ratioP2;P2;SDS_P1;SDS_P2;PMS_P1;PMS_P2;Temp;Humidity;BMP_temperature;BMP_pressure;BME280_temperature;BME280_humidity;BME280_pressure;Samples;Min_cycle;Max_cycle;Signal;HPM_P1;HPM_P2
2021/03/29 00:00:21;;;;;;;5.33;3.83;;;11.80;54.90;;;;;;5037304;28;20286;-85
2021/03/29 00:02:47;;;;;;;6.57;4.43;;;11.70;55.00;;;;;;5036965;28;20183;-85
2021/03/29 00:05:15;;;;;;;6.60;4.53;;;11.70;55.00;;;;;;5039317;28;20186;-86
2021/03/29 00:07:43;;;;;;;5.33;4.40;;;11.70;55.80;;;;;;5030488;28;20198;-86
2021/03/29 00:10:10;;;;;;;4.47;3.87;;;11.70;56.00;;;;;;5031741;28;20299;-86
2021/03/29 00:12:39;;;;;;;4.20;3.80;;;11.60;55.90;;;;;;5032048;28;20180;-86
2021/03/29 00:15:07;;;;;;;4.83;4.43;;;11.60;55.90;;;;;;5035729;28;20207;-87
2021/03/29 00:17:34;;;;;;;4.53;4.13;;;11.60;56.70;;;;;;5034716;28;20271;-86
2021/03/29 00:20:00;;;;;;;7.10;4.50;;;11.60;56.00;;;;;;5035728;28;20238;-86
2021/03/29 00:22:26;;;;;;;5.73;4.37;;;11.60;55.90;;;;;;5035970;28;20215;-86
2021/03/29 00:24:52;;;;;;;4.83;4.20;;;11.60;55.90;;;;;;5035539;28;20191;-86
2021/03/29 00:27:18;;;;;;;6.50;4.33;;;11.60;56.00;;;;;;5035339;28;20192;-86
2021/03/29 00:29:44;;;;;;;7.17;4.80;;;11.40;56.30;;;;;;5035616;28;20208;-86
2021/03/29 00:32:10;;;;;;;5.57;4.03;;;11.40;57.10;;;;;;5035828;28;20680;-86
2021/03/29 00:34:37;;;;;;;5.57;4.30;;;11.30;57.50;;;;;;5035784;28;20192;-86
2021/03/29 00:37:04;;;;;;;5.90;3.80;;;11.30;57.50;;;;;;5035174;28;20171;-86
2021/03/29 00:39:31;;;;;;;4.63;4.23;;;11.30;57.40;;;;;;5036241;28;20221;-86
2021/03/29 00:41:57;;;;;;;5.93;4.07;;;11.40;57.30;;;;;;5019443;28;20287;-85
2021/03/29 00:44:24;;;;;;;5.93;4.40;;;11.40;56.80;;;;;;5037446;28;20196;-85
2021/03/29 00:46:50;;;;;;;7.43;4.27;;;11.40;56.50;;;;;;5036743;28;20192;-86
2021/03/29 00:49:16;;;;;;;4.20;3.80;;;11.40;56.80;;;;;;5037414;28;22093;-86
2021/03/29 00:51:42;;;;;;;4.07;3.40;;;11.40;56.60;;;;;;5019280;28;20287;-86
2021/03/29 00:54:10;;;;;;;4.47;4.03;;;11.40;56.50;;;;;;5037073;28;20189;-86
2021/03/29 00:56:37;;;;;;;4.73;4.17;;;11.40;56.10;;;;;;5036728;28;20191;-85
2021/03/29 00:59:03;;;;;;;6.60;4.33;;;11.40;56.70;;;;;;5036417;28;20199;-86
2021/03/29 01:01:44;;;;;;;4.53;4.03;;;11.30;56.80;;;;;;5037507;28;20210;-85
2021/03/29 01:04:11;;;;;;;9.50;4.60;;;11.20;56.90;;;;;;5037259;28;20176;-85
2021/03/29 01:06:40;;;;;;;6.23;4.17;;;11.20;57.20;;;;;;5037205;28;20522;-86
2021/03/29 01:09:09;;;;;;;5.13;4.17;;;11.00;58.00;;;;;;5036931;28;20559;-86
2021/03/29 01:11:40;;;;;;;4.97;4.20;;;11.10;58.00;;;;;;5037208;28;20237;-86
2021/03/29 01:14:09;;;;;;;6.03;4.67;;;11.10;57.70;;;;;;5037128;28;20666;-85
2021/03/29 01:16:44;;;;;;;5.03;4.13;;;11.10;57.70;;;;;;5036719;28;20182;-86
2021/03/29 01:19:17;;;;;;;6.80;4.67;;;11.10;57.70;;;;;;5036791;28;20783;-85
2021/03/29 01:21:42;;;;;;;5.00;4.50;;;11.20;57.70;;;;;;5036992;28;20171;-86
2021/03/29 01:24:19;;;;;;;5.77;4.60;;;11.10;57.70;;;;;;5036365;28;20193;-85
2021/03/29 01:26:47;;;;;;;5.47;4.57;;;11.10;57.60;;;;;;5036064;28;20209;-87
2021/03/29 01:29:15;;;;;;;6.90;4.97;;;11.10;57.60;;;;;;5036486;28;20203;-86
2021/03/29 01:31:43;;;;;;;5.27;4.67;;;11.20;57.60;;;;;;5018193;28;20192;-86
2021/03/29 01:34:12;;;;;;;6.27;4.53;;;11.10;57.80;;;;;;5035615;28;20233;-85
2021/03/29 01:36:38;;;;;;;6.27;5.37;;;11.00;57.80;;;;;;5035643;28;20181;-87
2021/03/29 01:39:06;;;;;;;7.03;4.97;;;11.00;58.10;;;;;;5035457;28;20194;-86
2021/03/29 01:41:32;;;;;;;5.70;4.57;;;10.90;58.30;;;;;;5036984;28;20187;-85
2021/03/29 01:43:58;;;;;;;5.97;4.93;;;10.90;58.50;;;;;;5036585;28;20253;-85
2021/03/29 01:46:25;;;;;;;4.43;3.77;;;10.80;58.40;;;;;;5037335;28;20256;-85
2021/03/29 01:48:52;;;;;;;4.57;4.00;;;10.80;58.30;;;;;;5019047;28;20266;-85
2021/03/29 01:51:19;;;;;;;5.97;5.10;;;10.70;58.90;;;;;;5036694;28;20224;-87
2021/03/29 01:53:46;;;;;;;6.97;4.57;;;10.60;58.70;;;;;;5036890;28;20178;-86
2021/03/29 01:56:12;;;;;;;7.03;4.47;;;10.50;59.20;;;;;;5036414;28;20186;-85
2021/03/29 01:58:39;;;;;;;5.20;3.87;;;10.50;59.20;;;;;;5036905;28;20183;-85
2021/03/29 02:01:11;;;;;;;5.80;4.50;;;10.50;59.00;;;;;;5036630;28;20236;-85
2021/03/29 02:03:37;;;;;;;5.90;4.07;;;10.30;58.70;;;;;;5037791;28;20177;-85
2021/03/29 02:06:04;;;;;;;8.07;4.80;;;9.90;60.60;;;;;;5037244;28;20177;-85
2021/03/29 02:08:32;;;;;;;5.90;4.10;;;9.80;60.50;;;;;;5037503;28;20608;-84
2021/03/29 02:10:58;;;;;;;5.60;4.17;;;9.80;61.70;;;;;;5036944;28;20280;-85
2021/03/29 02:13:29;;;;;;;5.63;4.10;;;10.00;60.70;;;;;;5036564;28;20185;-87
2021/03/29 02:15:58;;;;;;;6.30;3.90;;;10.10;60.40;;;;;;5036774;28;20177;-85
2021/03/29 02:18:30;;;;;;;5.63;4.10;;;10.20;60.30;;;;;;5019592;28;20190;-85
2021/03/29 02:21:01;;;;;;;4.67;3.90;;;10.20;60.20;;;;;;5037566;28;20237;-87
2021/03/29 02:23:29;;;;;;;5.17;3.70;;;10.10;60.40;;;;;;5037880;28;20185;-85
2021/03/29 02:25:57;;;;;;;6.17;3.70;;;10.20;60.50;;;;;;5042528;28;20182;-86
2021/03/29 02:28:23;;;;;;;4.07;3.43;;;10.20;59.80;;;;;;5046244;28;20190;-86
2021/03/29 02:30:50;;;;;;;4.37;3.77;;;10.30;59.90;;;;;;5015683;28;20750;-86
2021/03/29 02:33:16;;;;;;;4.17;3.77;;;10.30;60.00;;;;;;5032935;28;20345;-87
2021/03/29 02:35:43;;;;;;;4.80;3.63;;;10.30;60.00;;;;;;5031508;28;20279;-86
2021/03/29 02:38:15;;;;;;;4.10;3.57;;;10.30;59.80;;;;;;5033133;28;20215;-85
2021/03/29 02:40:41;;;;;;;4.40;3.50;;;10.30;59.80;;;;;;5033350;28;20200;-85
2021/03/29 02:43:09;;;;;;;4.97;3.90;;;10.40;59.60;;;;;;5033610;28;20188;-85
2021/03/29 02:45:40;;;;;;;4.47;3.37;;;10.30;59.70;;;;;;5033602;28;20495;-85
2021/03/29 02:48:11;;;;;;;5.67;4.17;;;10.30;59.70;;;;;;5033845;28;20390;-86
2021/03/29 02:50:40;;;;;;;4.63;4.10;;;10.20;59.90;;;;;;5033596;28;20626;-85
2021/03/29 02:53:11;;;;;;;5.63;4.30;;;10.10;60.70;;;;;;5034182;28;20616;-85
2021/03/29 02:55:37;;;;;;;4.73;3.90;;;10.10;60.70;;;;;;5017505;28;20186;-85
2021/03/29 02:58:05;;;;;;;4.17;3.77;;;10.10;61.20;;;;;;5017117;28;20638;-86
2021/03/29 03:00:34;;;;;;;4.27;3.83;;;10.10;60.50;;;;;;5015793;28;20254;-85
2021/03/29 03:03:03;;;;;;;4.23;3.83;;;10.10;60.50;;;;;;5017611;28;20186;-85
2021/03/29 03:05:32;;;;;;;6.57;4.10;;;10.00;60.70;;;;;;5037492;28;20189;-85
2021/03/29 03:07:58;;;;;;;5.30;4.30;;;9.90;60.80;;;;;;5036585;28;20216;-85
2021/03/29 03:10:26;;;;;;;4.83;4.27;;;9.80;61.70;;;;;;5037542;28;20239;-86
2021/03/29 03:12:52;;;;;;;4.07;3.67;;;9.80;61.80;;;;;;5037643;28;20207;-86
2021/03/29 03:15:22;;;;;;;7.00;3.80;;;9.70;62.00;;;;;;5037287;28;20235;-86
2021/03/29 03:17:48;;;;;;;6.33;4.10;;;9.70;62.40;;;;;;5036958;28;20173;-86
2021/03/29 03:20:16;;;;;;;4.60;3.83;;;9.70;62.10;;;;;;5036427;28;20247;-85
2021/03/29 03:22:59;;;;;;;4.47;3.77;;;9.50;62.60;;;;;;5036798;28;20181;-86
2021/03/29 03:25:28;;;;;;;4.40;4.00;;;9.60;62.70;;;;;;5036308;28;20548;-85
2021/03/29 03:27:55;;;;;;;4.50;3.90;;;9.50;62.20;;;;;;5034864;28;20192;-85
2021/03/29 03:30:27;;;;;;;6.07;4.03;;;9.40;62.40;;;;;;5036625;28;20208;-85
2021/03/29 03:32:53;;;;;;;4.20;3.70;;;9.40;62.70;;;;;;5037154;28;20258;-86
2021/03/29 03:35:21;;;;;;;5.97;3.50;;;9.40;62.70;;;;;;5036666;28;20176;-86
2021/03/29 03:38:20;;;;;;;4.20;3.80;;;9.40;62.40;;;;;;5036549;28;20223;-86
2021/03/29 03:40:58;;;;;;;6.60;4.07;;;9.40;62.50;;;;;;5036164;28;20212;-86
2021/03/29 03:43:27;;;;;;;4.77;3.90;;;9.30;62.90;;;;;;5036331;28;20180;-85
2021/03/29 03:46:01;;;;;;;5.20;3.20;;;9.30;62.70;;;;;;5037042;28;20212;-85
2021/03/29 03:48:29;;;;;;;5.20;4.00;;;9.30;62.50;;;;;;5036373;28;20185;-85
2021/03/29 03:50:57;;;;;;;4.67;4.17;;;9.20;62.80;;;;;;5000347;28;20235;-85
2021/03/29 03:53:25;;;;;;;5.80;4.30;;;9.20;63.10;;;;;;5034789;28;20227;-85
2021/03/29 03:55:56;;;;;;;4.63;4.00;;;9.30;63.00;;;;;;5014543;28;20196;-86
2021/03/29 03:58:22;;;;;;;5.30;3.60;;;9.30;62.30;;;;;;5022709;28;20180;-85
2021/03/29 04:00:48;;;;;;;4.90;3.93;;;9.10;62.60;;;;;;5034445;28;20699;-85
2021/03/29 04:03:14;;;;;;;5.07;3.70;;;9.10;63.40;;;;;;5034658;28;20218;-85
2021/03/29 04:05:40;;;;;;;7.77;4.37;;;9.20;63.30;;;;;;5031550;28;20185;-85
2021/03/29 04:08:07;;;;;;;7.83;4.30;;;9.10;63.20;;;;;;5033116;28;20181;-85
2021/03/29 04:10:54;;;;;;;3.93;3.63;;;9.20;63.20;;;;;;5033051;28;20221;-85
2021/03/29 04:13:29;;;;;;;7.20;4.50;;;9.10;63.20;;;;;;5032162;28;20195;-85
2021/03/29 04:16:02;;;;;;;4.10;3.70;;;9.20;63.00;;;;;;5033483;28;20690;-85
2021/03/29 04:18:28;;;;;;;5.43;3.90;;;9.20;62.90;;;;;;5033541;28;20209;-86
2021/03/29 04:20:55;;;;;;;3.63;3.23;;;9.10;63.00;;;;;;5033969;28;20224;-86
2021/03/29 04:23:23;;;;;;;5.37;3.90;;;8.90;64.00;;;;;;5033350;28;20199;-86
2021/03/29 04:25:48;;;;;;;6.53;4.30;;;8.90;64.10;;;;;;5033290;28;20674;-85
2021/03/29 04:28:14;;;;;;;5.27;4.00;;;8.90;64.10;;;;;;5033356;28;20275;-85
2021/03/29 04:30:40;;;;;;;4.33;3.93;;;9.00;63.90;;;;;;5033285;28;20698;-85
2021/03/29 04:33:06;;;;;;;4.93;3.77;;;8.90;63.90;;;;;;5033475;28;20234;-85
2021/03/29 04:35:32;;;;;;;6.17;3.87;;;8.90;63.80;;;;;;5033584;28;20181;-85
2021/03/29 04:37:58;;;;;;;5.37;3.70;;;8.80;64.30;;;;;;5033776;28;20188;-85
2021/03/29 04:40:26;;;;;;;5.17;3.80;;;8.80;64.40;;;;;;5033993;28;20208;-86
2021/03/29 04:42:52;;;;;;;6.07;4.10;;;8.70;64.70;;;;;;5034432;28;20235;-86
2021/03/29 04:45:18;;;;;;;6.33;4.23;;;8.70;64.60;;;;;;5033498;28;20211;-86
2021/03/29 04:47:45;;;;;;;4.97;4.30;;;8.70;64.30;;;;;;5036939;28;20239;-85
2021/03/29 04:50:13;;;;;;;5.93;4.03;;;8.50;64.90;;;;;;5020772;28;20272;-85
2021/03/29 04:52:38;;;;;;;5.07;3.90;;;8.40;65.70;;;;;;5038203;28;20189;-85
2021/03/29 04:55:06;;;;;;;5.90;3.70;;;8.30;66.20;;;;;;5014020;28;20186;-86
2021/03/29 04:57:31;;;;;;;7.30;4.10;;;8.50;66.00;;;;;;5026720;28;20200;-85
2021/03/29 04:59:57;;;;;;;5.40;3.97;;;8.50;65.60;;;;;;5041611;28;20224;-85
2021/03/29 05:02:22;;;;;;;7.30;4.07;;;8.50;65.40;;;;;;5026689;28;20533;-83
2021/03/29 05:04:48;;;;;;;9.73;4.60;;;8.50;65.90;;;;;;5030628;28;20221;-84
2021/03/29 05:07:14;;;;;;;7.60;4.00;;;8.40;65.60;;;;;;5033984;28;20739;-84
2021/03/29 05:09:40;;;;;;;9.30;4.33;;;8.40;65.60;;;;;;5018420;28;20201;-84
2021/03/29 05:12:17;;;;;;;7.87;4.50;;;8.40;65.50;;;;;;5018141;28;20187;-84
2021/03/29 05:14:43;;;;;;;5.50;4.30;;;8.50;65.30;;;;;;5025572;28;20244;-84
2021/03/29 05:17:10;;;;;;;5.23;4.37;;;8.50;64.90;;;;;;5025676;28;20598;-84
2021/03/29 05:19:36;;;;;;;9.97;3.90;;;8.50;65.00;;;;;;5024710;28;20638;-84
2021/03/29 05:22:03;;;;;;;6.87;4.87;;;8.50;65.30;;;;;;5023538;28;20248;-84
2021/03/29 05:24:29;;;;;;;8.53;4.70;;;8.40;64.90;;;;;;5029584;28;20251;-84
2021/03/29 05:26:55;;;;;;;5.63;4.60;;;8.30;65.20;;;;;;5000776;28;20584;-84
2021/03/29 05:29:27;;;;;;;5.00;4.17;;;8.30;65.70;;;;;;5034395;28;20584;-84
2021/03/29 05:31:55;;;;;;;5.43;4.30;;;8.30;65.50;;;;;;5028851;28;20193;-84
2021/03/29 05:34:22;;;;;;;6.13;4.13;;;8.40;65.50;;;;;;5032156;28;20185;-84
2021/03/29 05:36:47;;;;;;;9.60;4.67;;;8.30;65.00;;;;;;5038523;28;20192;-85
2021/03/29 05:39:13;;;;;;;4.97;3.90;;;8.20;65.40;;;;;;5038765;28;20256;-85
2021/03/29 05:41:40;;;;;;;4.57;3.70;;;8.10;66.20;;;;;;5037164;28;20184;-85
2021/03/29 05:44:10;;;;;;;7.87;4.17;;;8.20;66.30;;;;;;5019423;28;20185;-84
2021/03/29 05:46:40;;;;;;;8.37;4.53;;;8.20;66.30;;;;;;5036904;28;20545;-85
2021/03/29 05:49:07;;;;;;;9.57;4.67;;;8.20;66.10;;;;;;5036248;28;20224;-86
2021/03/29 05:51:41;;;;;;;6.23;4.23;;;8.20;66.20;;;;;;5032218;28;20205;-85
2021/03/29 05:54:07;;;;;;;6.10;4.10;;;8.30;66.20;;;;;;5029245;28;20170;-85
2021/03/29 05:56:34;;;;;;;8.83;4.00;;;8.30;65.90;;;;;;5015357;28;20185;-85
2021/03/29 06:01:47;;;;;;;5.53;4.50;;;8.30;65.90;;;;;;5034506;28;20172;-84
2021/03/29 06:04:15;;;;;;;9.17;4.67;;;8.30;66.50;;;;;;5035109;28;20184;-84
2021/03/29 06:06:41;;;;;;;13.07;4.70;;;8.20;66.10;;;;;;5033901;28;20264;-84
2021/03/29 06:09:08;;;;;;;9.90;4.50;;;8.20;66.40;;;;;;5034323;28;20197;-84
2021/03/29 06:11:38;;;;;;;12.70;5.03;;;8.20;66.30;;;;;;5028001;28;20186;-84
2021/03/29 06:14:07;;;;;;;8.80;4.77;;;8.30;67.00;;;;;;5024987;28;20178;-84
2021/03/29 06:17:07;;;;;;;10.40;4.40;;;8.30;66.00;;;;;;5022212;28;20185;-84
2021/03/29 06:19:37;;;;;;;6.77;3.63;;;8.40;66.00;;;;;;5008585;28;20224;-85
2021/03/29 06:22:22;;;;;;;8.30;4.37;;;8.40;65.20;;;;;;5034235;28;20275;-84
2021/03/29 06:25:06;;;;;;;6.93;3.93;;;8.30;65.50;;;;;;5033009;28;20539;-84
2021/03/29 06:27:38;;;;;;;6.77;4.50;;;8.40;65.60;;;;;;5032550;28;20200;-84
2021/03/29 06:30:11;;;;;;;7.03;4.23;;;8.40;65.80;;;;;;5032851;28;20296;-84
2021/03/29 06:32:37;;;;;;;6.33;4.77;;;8.50;65.90;;;;;;5032778;28;20557;-84
2021/03/29 06:35:41;;;;;;;5.07;4.10;;;8.50;66.10;;;;;;5032198;28;20188;-84
2021/03/29 06:38:27;;;;;;;6.03;4.73;;;8.70;66.20;;;;;;4998758;28;20611;-84
2021/03/29 06:40:55;;;;;;;5.50;4.30;;;8.70;65.30;;;;;;5030532;28;20220;-84
2021/03/29 06:43:28;;;;;;;5.23;4.50;;;8.70;65.20;;;;;;5032269;28;20185;-84
2021/03/29 06:45:57;;;;;;;6.23;4.93;;;8.80;64.90;;;;;;5026924;28;20186;-84
2021/03/29 06:48:36;;;;;;;7.20;4.90;;;8.80;65.00;;;;;;5014354;28;20189;-84
2021/03/29 06:51:22;;;;;;;7.30;5.00;;;8.80;65.40;;;;;;5031573;28;20212;-84
2021/03/29 06:53:53;;;;;;;6.97;5.27;;;8.80;65.10;;;;;;5028409;28;20170;-84
2021/03/29 06:56:23;;;;;;;11.97;6.30;;;8.90;65.20;;;;;;5012202;28;20181;-84
2021/03/29 06:58:50;;;;;;;7.23;5.93;;;9.00;64.60;;;;;;5018693;28;20220;-84
2021/03/29 07:01:22;;;;;;;9.40;6.13;;;8.90;64.70;;;;;;5013960;28;20276;-84
2021/03/29 07:03:49;;;;;;;8.73;6.30;;;9.00;64.50;;;;;;5022211;28;20225;-84
2021/03/29 07:06:17;;;;;;;10.17;6.80;;;9.00;65.00;;;;;;5004359;28;20189;-84
2021/03/29 07:08:46;;;;;;;7.77;6.03;;;9.00;65.30;;;;;;5021359;28;20193;-84
2021/03/29 07:11:14;;;;;;;6.87;5.57;;;9.10;65.90;;;;;;5020065;28;20287;-84
2021/03/29 07:13:42;;;;;;;5.70;4.97;;;9.00;66.00;;;;;;5022053;28;20197;-84
2021/03/29 07:16:09;;;;;;;7.40;4.20;;;9.00;65.70;;;;;;5021042;28;20190;-84
2021/03/29 07:18:36;;;;;;;6.90;4.20;;;8.90;65.30;;;;;;5026202;28;20192;-84
2021/03/29 07:21:07;;;;;;;6.23;4.43;;;8.80;64.20;;;;;;5026580;28;20212;-84
2021/03/29 07:23:33;;;;;;;6.70;4.77;;;8.80;65.20;;;;;;5026981;28;20272;-84
2021/03/29 07:26:00;;;;;;;6.93;4.93;;;8.80;64.10;;;;;;5028342;28;20200;-83
2021/03/29 07:28:30;;;;;;;11.93;4.70;;;8.80;65.20;;;;;;5029645;28;20271;-84
2021/03/29 07:31:00;;;;;;;4.73;3.77;;;8.80;64.20;;;;;;5031359;28;20224;-84
2021/03/29 07:33:46;;;;;;;6.40;5.00;;;8.90;65.70;;;;;;5033490;28;20205;-84
2021/03/29 07:36:12;;;;;;;5.90;4.47;;;9.20;63.90;;;;;;5035964;28;20189;-84
2021/03/29 07:38:56;;;;;;;6.27;4.73;;;9.30;64.70;;;;;;5030526;28;20691;-84
2021/03/29 07:41:21;;;;;;;8.93;4.60;;;9.50;65.60;;;;;;5028713;28;20201;-84
2021/03/29 07:44:12;;;;;;;5.27;4.23;;;9.60;64.70;;;;;;5027692;28;20223;-84
2021/03/29 07:46:40;;;;;;;8.57;6.07;;;9.70;63.30;;;;;;5028832;28;20193;-84
2021/03/29 07:49:42;;;;;;;12.53;5.40;;;9.80;62.90;;;;;;5028090;28;20236;-83
2021/03/29 07:52:46;;;;;;;8.57;4.30;;;9.80;62.80;;;;;;5029344;28;20263;-84
2021/03/29 07:55:27;;;;;;;6.37;4.00;;;9.90;61.80;;;;;;5030826;28;20193;-84
2021/03/29 07:57:53;;;;;;;5.83;3.93;;;9.90;63.70;;;;;;5035332;28;20184;-84
2021/03/29 08:00:24;;;;;;;8.77;4.23;;;10.00;64.80;;;;;;5039783;28;20225;-84
2021/03/29 08:02:51;;;;;;;6.60;4.77;;;10.20;64.70;;;;;;5040416;28;20208;-84
2021/03/29 08:05:40;;;;;;;7.57;4.53;;;10.30;63.00;;;;;;5036899;28;20188;-84
2021/03/29 08:08:37;;;;;;;7.20;5.10;;;10.40;63.00;;;;;;5037252;28;20191;-84
2021/03/29 08:11:10;;;;;;;5.40;4.57;;;10.50;62.60;;;;;;5036315;28;20221;-84
2021/03/29 08:13:47;;;;;;;10.23;5.00;;;10.50;63.00;;;;;;5019013;28;20200;-84
2021/03/29 08:16:17;;;;;;;8.57;4.47;;;10.70;61.50;;;;;;5050144;28;20177;-85
2021/03/29 08:19:05;;;;;;;4.40;4.00;;;10.80;62.50;;;;;;5017508;28;20262;-83
2021/03/29 08:21:58;;;;;;;4.57;3.43;;;11.10;59.70;;;;;;5029550;28;20182;-84
2021/03/29 08:24:30;;;;;;;5.93;4.07;;;11.20;60.50;;;;;;5025771;28;20284;-84
2021/03/29 08:27:03;;;;;;;5.67;3.80;;;11.40;58.60;;;;;;5021686;28;20196;-84
2021/03/29 08:29:36;;;;;;;6.80;4.23;;;11.40;58.50;;;;;;5022524;28;20243;-84
2021/03/29 08:32:14;;;;;;;8.07;4.00;;;11.50;57.30;;;;;;5004298;28;20197;-84
2021/03/29 08:34:49;;;;;;;5.47;3.70;;;11.60;58.60;;;;;;5022320;28;20178;-84
2021/03/29 08:37:24;;;;;;;6.07;3.70;;;11.90;57.50;;;;;;5026662;28;20176;-86
2021/03/29 08:39:53;;;;;;;5.30;4.00;;;11.90;57.00;;;;;;5026756;28;20217;-86
2021/03/29 08:42:21;;;;;;;4.80;3.47;;;12.20;56.80;;;;;;5026648;28;20217;-87
2021/03/29 08:44:50;;;;;;;8.60;4.00;;;12.20;56.20;;;;;;5025345;28;20650;-86
2021/03/29 08:47:22;;;;;;;5.53;3.33;;;12.60;54.30;;;;;;5024884;28;20207;-86
2021/03/29 08:49:51;;;;;;;7.17;3.90;;;12.80;52.60;;;;;;5026728;28;20206;-86
2021/03/29 08:52:17;;;;;;;8.07;4.27;;;12.80;52.60;;;;;;5023251;28;20199;-86
2021/03/29 08:54:57;;;;;;;8.87;4.43;;;13.00;51.40;;;;;;5024497;28;20192;-84
2021/03/29 08:57:26;;;;;;;7.40;3.60;;;13.10;51.30;;;;;;5024977;28;20179;-85
2021/03/29 09:00:00;;;;;;;5.90;3.60;;;13.30;52.00;;;;;;5007992;28;20699;-85
2021/03/29 09:02:27;;;;;;;5.33;3.93;;;13.50;52.10;;;;;;5025416;28;20186;-86
2021/03/29 09:04:58;;;;;;;5.87;3.83;;;13.60;50.60;;;;;;5022699;28;20364;-86
2021/03/29 09:07:32;;;;;;;5.60;3.67;;;13.80;49.50;;;;;;5006681;28;20215;-85
2021/03/29 09:09:59;;;;;;;4.80;3.57;;;14.00;50.10;;;;;;5024447;28;20311;-84
2021/03/29 09:12:28;;;;;;;4.43;3.87;;;14.10;47.90;;;;;;5026383;28;20237;-85
2021/03/29 09:14:54;;;;;;;7.53;3.97;;;14.40;47.90;;;;;;5029760;28;20252;-84
2021/03/29 09:17:27;;;;;;;13.70;4.40;;;14.50;49.50;;;;;;5031228;28;20189;-85
2021/03/29 09:19:54;;;;;;;4.67;3.37;;;14.50;48.60;;;;;;5028336;28;20301;-85
2021/03/29 09:22:27;;;;;;;5.97;3.20;;;14.60;47.30;;;;;;5025486;28;20189;-85
2021/03/29 09:24:52;;;;;;;5.80;3.60;;;14.80;46.90;;;;;;5028455;28;20211;-84
2021/03/29 09:27:24;;;;;;;4.00;3.40;;;15.10;45.70;;;;;;5027820;28;20544;-85
2021/03/29 09:29:50;;;;;;;5.50;3.37;;;15.10;45.40;;;;;;5027455;28;20222;-85
2021/03/29 09:32:18;;;;;;;12.70;10.20;;;15.30;45.90;;;;;;5028125;28;20186;-84
2021/03/29 09:34:46;;;;;;;4.17;3.40;;;15.50;43.60;;;;;;5028610;28;20193;-85
2021/03/29 09:37:26;;;;;;;4.27;3.50;;;15.60;42.90;;;;;;5030968;28;20681;-84
2021/03/29 09:40:06;;;;;;;3.50;2.77;;;15.80;42.50;;;;;;5031570;28;20740;-84
2021/03/29 09:43:02;;;;;;;5.77;3.30;;;15.90;41.30;;;;;;5028724;28;20201;-85
2021/03/29 09:45:31;;;;;;;3.53;2.43;;;16.00;42.90;;;;;;5014553;28;20464;-85
2021/03/29 09:48:09;;;;;;;4.23;3.00;;;16.10;40.00;;;;;;5017794;28;20200;-84
2021/03/29 09:50:35;;;;;;;4.57;2.93;;;15.90;41.00;;;;;;5027052;28;20638;-84
2021/03/29 09:53:20;;;;;;;3.97;3.00;;;16.00;40.10;;;;;;5027277;28;20200;-84
2021/03/29 09:55:50;;;;;;;22.33;16.93;;;16.20;39.80;;;;;;5024739;28;20191;-84
2021/03/29 09:58:35;;;;;;;5.53;2.97;;;16.40;41.10;;;;;;5024640;28;20311;-84
2021/03/29 10:01:04;;;;;;;3.97;3.27;;;16.60;39.40;;;;;;5024846;28;20223;-84
2021/03/29 10:03:30;;;;;;;2.83;2.60;;;16.60;40.90;;;;;;5024886;28;20245;-85
2021/03/29 10:05:56;;;;;;;4.90;3.40;;;16.70;39.00;;;;;;5025605;28;20190;-85
2021/03/29 10:08:31;;;;;;;3.77;2.97;;;16.70;39.60;;;;;;5009202;28;20197;-84
2021/03/29 10:11:06;;;;;;;14.40;11.03;;;17.00;40.10;;;;;;5019885;28;20230;-84
2021/03/29 10:13:37;;;;;;;10.23;6.20;;;17.10;39.40;;;;;;5008737;28;20197;-85
2021/03/29 10:16:23;;;;;;;4.93;3.40;;;17.20;38.80;;;;;;5022629;28;20182;-84
2021/03/29 10:19:02;;;;;;;5.17;2.80;;;17.40;39.10;;;;;;5025744;28;20250;-84
2021/03/29 10:21:28;;;;;;;3.00;2.70;;;17.50;37.00;;;;;;5029461;28;20363;-84
2021/03/29 10:24:13;;;;;;;5.03;3.60;;;17.70;36.30;;;;;;5032717;28;20902;-84
2021/03/29 10:26:39;;;;;;;3.90;2.90;;;17.80;36.10;;;;;;5027638;28;20258;-84
2021/03/29 10:29:07;;;;;;;6.13;3.50;;;18.00;35.90;;;;;;5024080;28;20213;-85
2021/03/29 10:31:36;;;;;;;4.80;2.87;;;18.20;36.70;;;;;;5023816;28;20300;-85
2021/03/29 10:34:02;;;;;;;4.77;2.80;;;18.10;36.00;;;;;;5029233;28;20195;-84
2021/03/29 10:36:29;;;;;;;5.33;3.07;;;17.90;37.10;;;;;;5030472;28;20198;-84
2021/03/29 10:38:56;;;;;;;4.27;3.67;;;17.90;37.80;;;;;;5025109;28;20193;-84
2021/03/29 10:41:23;;;;;;;5.47;3.13;;;18.40;36.30;;;;;;5024713;28;20273;-84
2021/03/29 10:43:49;;;;;;;6.30;3.30;;;18.50;36.50;;;;;;5025256;28;20285;-85
2021/03/29 10:46:15;;;;;;;4.17;2.63;;;18.80;35.90;;;;;;5021959;28;20203;-85
2021/03/29 10:48:41;;;;;;;4.80;2.83;;;18.80;34.90;;;;;;5005967;28;20205;-87
2021/03/29 10:51:08;;;;;;;5.90;2.77;;;18.60;35.70;;;;;;5023131;28;20245;-86
2021/03/29 10:53:36;;;;;;;4.33;2.83;;;18.50;35.90;;;;;;5038409;28;20216;-84
2021/03/29 10:56:02;;;;;;;5.83;3.13;;;18.80;35.70;;;;;;5023995;28;20478;-84
2021/03/29 10:58:28;;;;;;;7.17;3.20;;;18.90;35.00;;;;;;5023458;28;20201;-85
2021/03/29 11:00:53;;;;;;;6.60;2.60;;;19.00;33.70;;;;;;5024225;28;20226;-84
2021/03/29 11:03:19;;;;;;;3.73;2.80;;;19.10;34.50;;;;;;5025948;28;20197;-84
2021/03/29 11:05:45;;;;;;;4.43;3.10;;;19.30;34.30;;;;;;5027407;28;20191;-84
2021/03/29 11:08:11;;;;;;;8.87;3.10;;;19.40;33.70;;;;;;5025665;28;20265;-86
2021/03/29 11:10:36;;;;;;;6.10;2.93;;;19.40;33.70;;;;;;5028600;28;20225;-84
2021/03/29 11:13:03;;;;;;;4.40;2.60;;;19.40;33.40;;;;;;5025378;28;20280;-85
2021/03/29 11:15:31;;;;;;;4.22;2.85;;;19.70;33.60;;;;;;5010230;28;20190;-84
2021/03/29 11:17:56;;;;;;;4.40;3.00;;;19.90;32.20;;;;;;5006703;28;20221;-85
2021/03/29 11:20:22;;;;;;;6.60;2.90;;;19.90;32.20;;;;;;5025965;28;20750;-85
2021/03/29 11:22:48;;;;;;;4.05;2.63;;;19.80;32.40;;;;;;5024948;28;20886;-85
2021/03/29 11:25:14;;;;;;;6.03;2.78;;;19.80;32.00;;;;;;5008083;28;20186;-85
2021/03/29 11:27:41;;;;;;;4.55;2.85;;;19.90;31.90;;;;;;5023956;28;20208;-86
2021/03/29 11:30:09;;;;;;;7.00;3.23;;;20.00;31.20;;;;;;5024525;28;20338;-84
2021/03/29 11:32:40;;;;;;;5.93;3.03;;;19.80;31.90;;;;;;5027819;28;20569;-86
2021/03/29 11:35:06;;;;;;;10.50;3.40;;;19.60;32.00;;;;;;5026714;28;20208;-84
2021/03/29 11:37:32;;;;;;;5.33;2.83;;;20.10;32.50;;;;;;5023883;28;20191;-85
2021/03/29 11:39:58;;;;;;;3.83;2.47;;;20.50;30.80;;;;;;5026458;28;20591;-85
2021/03/29 11:42:24;;;;;;;4.22;2.78;;;20.90;31.00;;;;;;5024711;28;20560;-86
2021/03/29 11:44:50;;;;;;;4.45;3.05;;;20.90;30.50;;;;;;5023573;28;20204;-85
2021/03/29 11:47:16;;;;;;;3.78;2.90;;;21.00;30.80;;;;;;5025126;28;20197;-85
2021/03/29 11:49:42;;;;;;;5.50;2.95;;;21.10;31.40;;;;;;5025586;28;20220;-85
2021/03/29 11:52:07;;;;;;;4.80;2.95;;;21.20;29.70;;;;;;5025888;28;20211;-85
2021/03/29 11:54:33;;;;;;;5.72;3.05;;;21.10;29.20;;;;;;5023565;28;20271;-85
2021/03/29 11:56:59;;;;;;;5.68;3.00;;;21.20;29.30;;;;;;5026526;28;20184;-86
2021/03/29 11:59:27;;;;;;;4.03;3.33;;;21.40;29.10;;;;;;5024907;28;20698;-84
2021/03/29 12:02:00;;;;;;;4.70;3.08;;;21.10;29.60;;;;;;5025860;28;20703;-85
2021/03/29 12:04:34;;;;;;;7.22;3.55;;;21.10;29.90;;;;;;5024943;28;20192;-85
2021/03/29 12:08:04;;;;;;;8.45;3.30;;;21.50;28.80;;;;;;5024679;28;20181;-85
2021/03/29 12:12:41;;;;;;;6.13;3.10;;;21.70;30.40;;;;;;5028108;28;20181;-86
2021/03/29 12:15:11;;;;;;;5.75;3.28;;;21.60;29.20;;;;;;5030024;28;20208;-85
2021/03/29 12:17:38;;;;;;;7.78;3.42;;;22.00;27.60;;;;;;5029438;28;20235;-85
2021/03/29 12:20:06;;;;;;;7.30;3.17;;;21.90;28.80;;;;;;5032971;28;20205;-85
2021/03/29 12:22:33;;;;;;;5.20;2.92;;;22.10;28.20;;;;;;5015311;28;20193;-89
2021/03/29 12:25:00;;;;;;;3.83;3.45;;;22.20;28.20;;;;;;5028158;28;20186;-84
2021/03/29 12:27:26;;;;;;;6.82;3.03;;;22.10;28.20;;;;;;5044591;28;20193;-84
2021/03/29 12:29:53;;;;;;;4.82;2.85;;;22.30;28.60;;;;;;5031487;28;20277;-84
2021/03/29 12:32:20;;;;;;;4.30;3.67;;;22.70;27.80;;;;;;5030493;28;20193;-84
2021/03/29 12:34:58;;;;;;;5.93;3.63;;;22.90;27.80;;;;;;5030629;28;20605;-85
2021/03/29 12:37:29;;;;;;;4.35;3.20;;;23.20;27.20;;;;;;5029914;28;20210;-85
2021/03/29 12:40:02;;;;;;;5.28;3.60;;;23.20;27.10;;;;;;5028474;28;20209;-84
2021/03/29 12:42:29;;;;;;;5.13;3.63;;;23.50;26.60;;;;;;5043531;28;20196;-84
2021/03/29 12:44:56;;;;;;;4.57;3.13;;;23.00;26.90;;;;;;5020455;28;20193;-84
2021/03/29 12:47:26;;;;;;;4.28;3.28;;;23.10;27.10;;;;;;5033343;28;20292;-84
2021/03/29 12:49:52;;;;;;;4.28;3.15;;;23.10;26.60;;;;;;5027272;28;20573;-84
2021/03/29 12:52:18;;;;;;;8.05;3.40;;;23.20;26.90;;;;;;5008204;28;20189;-84
2021/03/29 12:54:45;;;;;;;4.47;3.22;;;22.90;26.30;;;;;;5029533;28;20196;-85
2021/03/29 12:57:11;;;;;;;8.77;3.60;;;22.90;26.40;;;;;;5027572;28;20213;-84
2021/03/29 12:59:37;;;;;;;6.63;3.22;;;23.30;26.20;;;;;;5011014;28;20295;-84
2021/03/29 13:02:03;;;;;;;4.43;3.33;;;23.80;25.90;;;;;;5026739;28;20185;-84
2021/03/29 13:04:35;;;;;;;3.65;3.03;;;23.90;24.70;;;;;;5027470;28;20189;-85
2021/03/29 13:07:21;;;;;;;4.55;3.30;;;23.80;24.60;;;;;;5026863;28;20192;-84
2021/03/29 13:12:21;;;;;;;4.78;3.63;;;23.90;24.70;;;;;;5026067;28;20182;-85